createdAt,value
2023-02-11T00:01:09.071Z,9.85
2023-02-11T00:03:39.006Z,10.55
2023-02-11T00:06:11.667Z,14.85
2023-02-11T00:08:39.410Z,10.55
2023-02-11T00:11:06.366Z,11.60
2023-02-11T00:13:34.278Z,12.63
2023-02-11T00:16:06.882Z,12.18
2023-02-11T00:18:34.037Z,16.35
2023-02-11T00:21:08.736Z,11.93
2023-02-11T00:23:36.044Z,15.15
2023-02-11T00:26:04.886Z,14.45
2023-02-11T00:28:31.954Z,13.73
2023-02-11T00:30:59.622Z,14.75
2023-02-11T00:33:28.918Z,17.13
2023-02-11T00:35:56.013Z,16.05
2023-02-11T00:38:22.864Z,13.10
2023-02-11T00:40:49.850Z,13.05
2023-02-11T00:43:16.779Z,19.52
2023-02-11T00:45:43.821Z,17.08
2023-02-11T00:48:11.007Z,14.15
2023-02-11T00:50:37.826Z,14.65
2023-02-11T00:53:06.950Z,16.25
2023-02-11T00:55:33.793Z,15.27
2023-02-11T00:58:00.724Z,18.70
2023-02-11T01:00:28.264Z,18.00
2023-02-11T01:02:55.134Z,17.40
2023-02-11T01:05:23.802Z,21.17
2023-02-11T01:07:50.896Z,13.48
2023-02-11T01:10:20.341Z,20.20
2023-02-11T01:12:47.270Z,16.15
2023-02-11T01:15:15.551Z,17.48
2023-02-11T01:17:44.767Z,16.10
2023-02-11T01:20:20.183Z,20.40
2023-02-11T01:22:46.886Z,18.75
2023-02-11T01:25:18.729Z,22.25
2023-02-11T01:27:45.945Z,15.90
2023-02-11T01:30:14.441Z,21.00
2023-02-11T01:32:41.542Z,16.48
2023-02-11T01:35:10.155Z,20.27
2023-02-11T01:37:37.218Z,22.63
2023-02-11T01:40:08.252Z,16.73
2023-02-11T01:42:35.290Z,25.17
2023-02-11T01:45:24.167Z,22.73
2023-02-11T01:47:51.830Z,18.88
2023-02-11T01:50:19.099Z,20.02
2023-02-11T01:52:48.380Z,25.42
2023-02-11T01:55:40.304Z,25.73
2023-02-11T01:58:07.446Z,26.20
2023-02-11T02:00:38.117Z,31.65
2023-02-11T02:03:22.720Z,23.10
2023-02-11T02:05:50.305Z,21.83
2023-02-11T02:08:25.502Z,18.88
2023-02-11T02:10:54.961Z,23.80
2023-02-11T02:13:25.724Z,25.55
2023-02-11T02:15:54.046Z,24.05
2023-02-11T02:18:22.033Z,22.30
2023-02-11T02:21:16.570Z,28.13
2023-02-11T02:24:09.047Z,22.67
2023-02-11T02:26:45.379Z,24.10
2023-02-11T02:29:29.294Z,32.13
2023-02-11T02:35:23.769Z,37.88
2023-02-11T02:37:50.538Z,21.55
2023-02-11T02:40:25.727Z,27.83
2023-02-11T02:42:53.289Z,24.17
2023-02-11T02:45:20.743Z,25.50
2023-02-11T02:47:47.439Z,30.67
2023-02-11T02:50:20.424Z,25.55
2023-02-11T02:52:53.171Z,29.75
2023-02-11T02:55:48.355Z,31.13
2023-02-11T02:58:21.258Z,25.05
2023-02-11T03:01:08.751Z,30.73
2023-02-11T03:03:53.616Z,28.25
2023-02-11T03:06:20.531Z,28.10
2023-02-11T03:08:57.475Z,30.90
2023-02-11T03:11:25.912Z,24.33
2023-02-11T03:13:53.554Z,26.85
2023-02-11T03:16:25.583Z,27.85
2023-02-11T03:19:10.964Z,25.83
2023-02-11T03:21:39.459Z,24.48
2023-02-11T03:24:13.485Z,31.83
2023-02-11T03:26:56.651Z,21.27
2023-02-11T03:29:57.552Z,24.90
2023-02-11T03:32:39.672Z,22.40
2023-02-11T03:35:20.150Z,32.95
2023-02-11T03:38:00.569Z,24.38
2023-02-11T03:40:32.194Z,34.58
2023-02-11T03:43:07.325Z,26.85
2023-02-11T03:45:37.543Z,30.48
2023-02-11T03:48:12.711Z,28.42
2023-02-11T03:50:41.647Z,28.42
2023-02-11T03:53:10.181Z,22.70
2023-02-11T03:55:40.124Z,29.58
2023-02-11T03:58:07.503Z,29.73
2023-02-11T04:00:37.150Z,22.92
2023-02-11T04:03:04.708Z,29.65
2023-02-11T04:05:34.330Z,35.00
2023-02-11T04:08:01.366Z,28.85
2023-02-11T04:10:28.733Z,27.95
2023-02-11T04:12:55.989Z,26.98
2023-02-11T04:15:24.508Z,29.70
2023-02-11T04:17:51.992Z,31.17
2023-02-11T04:20:21.398Z,33.15
2023-02-11T04:22:48.213Z,26.05
2023-02-11T04:25:15.484Z,26.58
2023-02-11T04:27:42.931Z,25.42
2023-02-11T04:30:10.388Z,23.83
2023-02-11T04:32:37.298Z,31.58
2023-02-11T04:35:06.132Z,30.85
2023-02-11T04:37:32.917Z,29.00
2023-02-11T04:40:00.117Z,36.33
2023-02-11T04:42:28.530Z,27.73
2023-02-11T04:44:55.408Z,31.25
2023-02-11T04:47:22.444Z,35.13
2023-02-11T04:49:50.505Z,29.13
2023-02-11T04:52:17.431Z,30.55
2023-02-11T04:54:44.455Z,32.28
2023-02-11T04:57:11.700Z,28.77
2023-02-11T04:59:40.900Z,33.78
2023-02-11T05:02:07.901Z,34.72
2023-02-11T05:04:34.863Z,31.42
2023-02-11T05:07:02.210Z,25.88
2023-02-11T05:09:29.233Z,31.75
2023-02-11T05:11:56.405Z,32.20
2023-02-11T05:14:23.426Z,33.47
2023-02-11T05:16:50.641Z,38.65
2023-02-11T05:19:20.011Z,29.65
2023-02-11T05:22:01.389Z,31.17
2023-02-11T05:24:35.012Z,32.90
2023-02-11T05:27:02.381Z,28.33
2023-02-11T05:29:30.365Z,34.08
2023-02-11T05:31:59.019Z,29.98
2023-02-11T05:34:28.705Z,33.88
2023-02-11T05:36:56.521Z,34.33
2023-02-11T05:39:23.517Z,32.10
2023-02-11T05:41:50.522Z,30.67
2023-02-11T05:44:17.524Z,34.72
2023-02-11T05:46:44.938Z,30.10
2023-02-11T05:49:11.832Z,29.42
2023-02-11T05:51:39.053Z,33.78
2023-02-11T05:54:07.982Z,37.20
2023-02-11T05:56:34.992Z,29.67
2023-02-11T05:59:01.744Z,31.80
2023-02-11T06:01:35.026Z,33.42
2023-02-11T06:04:01.771Z,37.30
2023-02-11T06:06:30.110Z,30.58
2023-02-11T06:08:57.001Z,32.40
2023-02-11T06:11:23.914Z,25.77
2023-02-11T06:13:51.455Z,35.72
2023-02-11T06:16:18.322Z,24.80
2023-02-11T06:18:45.100Z,32.88
2023-02-11T06:21:12.705Z,34.92
2023-02-11T06:23:39.718Z,27.80
2023-02-11T06:26:17.968Z,29.90
2023-02-11T06:28:45.064Z,29.30
2023-02-11T06:31:13.545Z,30.75
2023-02-11T06:33:40.946Z,33.72
2023-02-11T06:36:20.921Z,31.42
2023-02-11T06:38:49.492Z,30.92
2023-02-11T06:41:20.381Z,28.15
2023-02-11T06:43:48.212Z,29.50
2023-02-11T06:46:15.568Z,34.67
2023-02-11T06:48:44.757Z,36.30
2023-02-11T06:51:13.708Z,32.55
2023-02-11T06:53:44.693Z,36.95
2023-02-11T06:56:15.813Z,34.83
2023-02-11T06:58:42.822Z,34.55
2023-02-11T07:01:13.834Z,32.00
2023-02-11T07:03:43.616Z,28.08
2023-02-11T07:06:14.820Z,26.27
2023-02-11T07:08:43.200Z,27.50
2023-02-11T07:11:19.894Z,33.33
2023-02-11T07:13:48.159Z,24.80
2023-02-11T07:16:17.975Z,28.08
2023-02-11T07:18:48.336Z,28.42
2023-02-11T07:21:18.330Z,30.38
2023-02-11T07:23:45.250Z,27.60
2023-02-11T07:26:17.076Z,23.27
2023-02-11T07:28:44.886Z,24.65
2023-02-11T07:31:18.239Z,33.22
2023-02-11T07:33:46.351Z,26.98
2023-02-11T07:36:15.046Z,19.85
2023-02-11T07:38:42.514Z,25.70
2023-02-11T07:41:13.079Z,25.13
2023-02-11T07:43:40.634Z,26.80
2023-02-11T07:46:16.980Z,25.92
2023-02-11T07:48:43.838Z,30.38
2023-02-11T07:51:19.755Z,28.95
2023-02-11T07:53:47.108Z,27.00
2023-02-11T07:56:15.821Z,23.17
2023-02-11T07:58:43.388Z,24.20
2023-02-11T08:01:15.681Z,23.05
2023-02-11T08:03:43.415Z,27.20
2023-02-11T08:06:13.887Z,27.13
2023-02-11T08:08:43.191Z,24.25
2023-02-11T08:11:17.273Z,23.17
2023-02-11T08:13:45.065Z,22.58
2023-02-11T08:16:26.899Z,18.08
2023-02-11T08:18:57.432Z,31.08
2023-02-11T08:21:25.041Z,25.98
2023-02-11T08:23:52.616Z,24.95
2023-02-11T08:26:21.781Z,19.67
2023-02-11T08:28:50.792Z,28.02
2023-02-11T08:31:21.011Z,21.73
2023-02-11T08:33:48.803Z,19.55
2023-02-11T08:36:18.327Z,20.10
2023-02-11T08:38:46.046Z,21.95
2023-02-11T08:41:15.045Z,22.92
2023-02-11T08:43:43.774Z,22.25
2023-02-11T08:46:14.640Z,24.38
2023-02-11T08:48:43.599Z,19.50
2023-02-11T08:51:14.806Z,19.95
2023-02-11T08:53:41.583Z,17.90
2023-02-11T08:56:13.251Z,20.02
2023-02-11T08:58:40.357Z,20.17
2023-02-11T09:01:16.059Z,18.30
2023-02-11T09:03:44.423Z,22.88
2023-02-11T09:06:12.724Z,16.08
2023-02-11T09:08:45.353Z,17.08
2023-02-11T09:11:14.064Z,17.23
2023-02-11T09:13:42.474Z,18.48
2023-02-11T09:16:18.103Z,21.20
2023-02-11T09:18:45.779Z,16.83
2023-02-11T09:21:13.698Z,17.48
2023-02-11T09:23:43.633Z,15.27
2023-02-11T09:26:31.838Z,20.17
2023-02-11T09:28:59.407Z,15.90
2023-02-11T09:31:28.984Z,18.30
2023-02-11T09:33:59.703Z,17.65
2023-02-11T09:36:29.465Z,14.70
2023-02-11T09:38:59.361Z,15.60
2023-02-11T09:41:33.446Z,14.88
2023-02-11T09:44:04.961Z,13.38
2023-02-11T09:46:34.923Z,17.27
2023-02-11T09:49:05.012Z,14.30
2023-02-11T09:51:49.957Z,16.42
2023-02-11T09:54:35.138Z,12.38
2023-02-11T09:57:02.224Z,11.45
2023-02-11T09:59:29.049Z,11.10
2023-02-11T10:02:17.226Z,11.68
2023-02-11T10:05:02.645Z,13.10
2023-02-11T10:07:44.447Z,17.75
2023-02-11T10:10:20.523Z,11.68
2023-02-11T10:13:07.744Z,13.95
2023-02-11T10:15:37.567Z,16.50
2023-02-11T10:18:14.521Z,12.75
2023-02-11T10:21:12.660Z,12.85
2023-02-11T10:23:44.656Z,13.18
2023-02-11T10:26:19.186Z,9.90
2023-02-11T10:28:53.184Z,15.27
2023-02-11T10:31:34.487Z,13.68
2023-02-11T10:34:05.921Z,14.32
2023-02-11T10:36:43.486Z,11.55
2023-02-11T10:39:15.468Z,14.00
2023-02-11T10:42:12.336Z,10.55
2023-02-11T10:45:16.343Z,13.02
2023-02-11T10:47:44.399Z,11.13
2023-02-11T10:50:29.836Z,12.52
2023-02-11T10:53:20.698Z,11.07
2023-02-11T10:55:51.221Z,11.43
2023-02-11T10:58:31.497Z,14.50
2023-02-11T11:01:00.629Z,14.32
2023-02-11T11:03:40.821Z,14.32
2023-02-11T11:06:09.786Z,14.25
2023-02-11T11:08:44.959Z,16.40
2023-02-11T11:11:20.566Z,17.45
2023-02-11T11:13:53.432Z,11.30
2023-02-11T11:16:26.562Z,10.35
2023-02-11T11:19:15.580Z,12.45
2023-02-11T11:21:47.129Z,11.77
2023-02-11T11:24:34.724Z,11.35
2023-02-11T11:27:04.724Z,14.45
2023-02-11T11:29:43.003Z,12.85
2023-02-11T11:32:20.545Z,17.00
2023-02-11T11:37:32.365Z,17.33
2023-02-11T11:40:10.726Z,11.43
2023-02-11T11:42:40.180Z,17.15
2023-02-11T11:45:10.372Z,14.82
2023-02-11T11:47:48.522Z,10.25
2023-02-11T11:50:21.340Z,13.85
2023-02-11T11:52:58.512Z,14.65
2023-02-11T11:55:36.959Z,10.32
2023-02-11T11:58:05.274Z,10.10
2023-02-11T12:00:48.214Z,14.55
2023-02-11T12:03:29.012Z,12.43
2023-02-11T12:06:26.721Z,12.65
2023-02-11T12:09:05.650Z,12.25
2023-02-11T12:11:57.387Z,10.73
2023-02-11T12:15:01.394Z,10.45
2023-02-11T12:17:40.400Z,10.23
2023-02-11T12:20:19.298Z,12.60
2023-02-11T12:22:49.061Z,18.27
2023-02-11T12:25:35.948Z,14.57
2023-02-11T12:28:20.089Z,13.57
2023-02-11T12:31:20.374Z,14.63
2023-02-11T12:34:19.792Z,11.57
2023-02-11T12:37:02.871Z,12.32
2023-02-11T12:39:45.743Z,10.07
2023-02-11T12:42:41.274Z,11.25
2023-02-11T12:45:11.261Z,9.70
2023-02-11T12:47:56.571Z,10.95
2023-02-11T12:50:33.699Z,8.30
2023-02-11T12:53:17.783Z,13.90
2023-02-11T12:55:48.637Z,9.95
2023-02-11T12:58:25.410Z,10.48
2023-02-11T13:01:06.628Z,9.00
2023-02-11T13:03:45.892Z,14.77
2023-02-11T13:06:25.031Z,9.65
2023-02-11T13:08:58.588Z,10.60
2023-02-11T13:11:30.581Z,8.77
2023-02-11T13:14:22.136Z,9.88
2023-02-11T13:16:50.894Z,8.73
2023-02-11T13:19:27.484Z,8.00
2023-02-11T13:22:11.408Z,9.25
2023-02-11T13:24:49.732Z,10.32
2023-02-11T13:27:35.370Z,9.52
2023-02-11T13:30:33.973Z,11.88
2023-02-11T13:33:03.610Z,6.45
2023-02-11T13:35:35.328Z,9.95
2023-02-11T13:38:17.388Z,11.35
2023-02-11T13:40:45.036Z,7.57
2023-02-11T13:43:24.821Z,9.18
2023-02-11T13:45:54.827Z,5.90
2023-02-11T13:48:37.210Z,11.15
2023-02-11T13:51:12.966Z,7.00
2023-02-11T13:53:54.216Z,8.68
2023-02-11T13:56:44.132Z,7.63
2023-02-11T14:21:44.326Z,9.20
2023-02-11T14:24:11.863Z,9.55
2023-02-11T14:26:44.530Z,14.50
2023-02-11T14:29:17.591Z,10.18
2023-02-11T14:31:59.077Z,8.35
2023-02-11T14:34:58.585Z,22.52
2023-02-11T14:37:50.496Z,11.00
2023-02-11T14:40:31.739Z,10.65
2023-02-11T14:43:06.333Z,9.88
2023-02-11T14:45:35.685Z,10.90
2023-02-11T14:48:15.003Z,11.38
2023-02-11T14:50:46.738Z,9.50
2023-02-11T14:53:17.984Z,10.77
2023-02-11T14:55:52.872Z,10.55
2023-02-11T14:58:25.301Z,11.65
2023-02-11T15:01:02.233Z,10.10
2023-02-11T15:03:31.142Z,10.00
2023-02-11T15:06:01.778Z,9.50
2023-02-11T15:08:31.148Z,9.88
2023-02-11T15:11:00.758Z,13.15
2023-02-11T15:13:31.197Z,11.88
2023-02-11T15:16:05.049Z,10.70
2023-02-11T15:18:39.252Z,9.32
2023-02-11T15:21:06.947Z,10.15
2023-02-11T15:23:40.677Z,8.85
2023-02-11T15:26:15.351Z,9.02
2023-02-11T15:28:49.024Z,9.57
2023-02-11T15:31:17.732Z,9.45
2023-02-11T15:33:47.165Z,8.27
2023-02-11T15:36:16.027Z,9.70
2023-02-11T15:38:44.039Z,8.63
2023-02-11T15:41:37.411Z,7.40
2023-02-11T15:44:04.396Z,9.43
2023-02-11T15:46:38.718Z,7.40
2023-02-11T15:49:06.705Z,9.75
2023-02-11T15:51:36.850Z,8.88
2023-02-11T15:54:19.790Z,7.85
2023-02-11T15:56:50.954Z,9.57
2023-02-11T15:59:25.798Z,9.63
2023-02-11T16:01:54.696Z,9.07
2023-02-11T16:04:26.587Z,7.35
2023-02-11T16:09:31.711Z,12.18
2023-02-11T16:12:07.834Z,7.63
2023-02-11T16:14:42.491Z,11.13
2023-02-11T16:17:11.126Z,9.75
2023-02-11T16:19:45.782Z,9.20
2023-02-11T16:22:19.735Z,8.93
2023-02-11T16:24:48.636Z,9.70
2023-02-11T16:27:36.716Z,8.93
2023-02-11T16:30:05.720Z,8.32
2023-02-11T16:32:32.703Z,12.73
2023-02-11T16:35:11.277Z,10.02
2023-02-11T16:37:38.390Z,11.43
2023-02-11T16:40:05.832Z,10.93
2023-02-11T16:42:32.768Z,10.05
2023-02-11T16:45:00.480Z,13.18
2023-02-11T16:47:28.757Z,10.23
2023-02-11T16:50:02.291Z,11.90
2023-02-11T16:52:31.590Z,7.00
2023-02-11T16:54:59.124Z,8.68
2023-02-11T16:57:29.898Z,10.45
2023-02-11T17:00:38.921Z,7.90
2023-02-11T17:03:08.323Z,5.65
2023-02-11T17:05:53.197Z,8.55
2023-02-11T17:08:21.894Z,9.98
2023-02-11T17:10:49.696Z,6.75
2023-02-11T17:13:16.968Z,9.68
2023-02-11T17:15:44.256Z,9.25
2023-02-11T17:18:16.297Z,13.23
2023-02-11T17:20:43.619Z,15.10
2023-02-11T17:23:10.982Z,7.97
2023-02-11T17:25:38.106Z,11.43
2023-02-11T17:28:06.408Z,11.50
2023-02-11T17:30:33.814Z,9.23
2023-02-11T17:33:00.885Z,11.70
2023-02-11T17:35:27.713Z,7.93
2023-02-11T17:38:03.202Z,10.45
2023-02-11T17:40:30.244Z,9.18
2023-02-11T17:42:56.971Z,11.30
2023-02-11T17:45:24.037Z,11.85
2023-02-11T17:47:50.953Z,13.55
2023-02-11T17:50:17.937Z,14.82
2023-02-11T17:52:49.011Z,12.13
2023-02-11T17:55:16.154Z,11.63
2023-02-11T17:57:47.363Z,10.10
2023-02-11T18:00:14.894Z,9.95
2023-02-11T18:02:57.244Z,11.45
2023-02-11T18:05:26.966Z,8.38
2023-02-11T18:07:55.462Z,9.73
2023-02-11T18:10:22.850Z,10.18
2023-02-11T18:12:49.858Z,9.77
2023-02-11T18:15:16.740Z,14.75
2023-02-11T18:17:43.676Z,12.13
2023-02-11T18:20:11.320Z,9.43
2023-02-11T18:22:40.892Z,9.88
2023-02-11T18:25:08.943Z,11.05
2023-02-11T18:27:35.819Z,11.90
2023-02-11T18:30:03.395Z,12.82
2023-02-11T18:32:30.687Z,8.05
2023-02-11T18:34:57.460Z,13.57
2023-02-11T18:37:24.545Z,12.30
2023-02-11T18:39:51.599Z,12.25
2023-02-11T18:42:18.520Z,7.95
2023-02-11T18:44:45.663Z,8.35
2023-02-11T18:47:17.055Z,10.93
2023-02-11T18:49:43.918Z,13.77
2023-02-11T18:52:10.915Z,9.98
2023-02-11T18:54:37.971Z,12.90
2023-02-11T18:57:04.845Z,11.40
2023-02-11T18:59:31.780Z,10.35
2023-02-11T19:01:58.886Z,11.25
2023-02-11T19:04:25.888Z,11.20
2023-02-11T19:06:52.796Z,12.90
2023-02-11T19:09:20.801Z,10.93
2023-02-11T19:11:52.622Z,15.02
2023-02-11T19:14:25.984Z,13.43
2023-02-11T19:16:55.678Z,13.57
2023-02-11T19:19:25.191Z,11.13
2023-02-11T19:21:52.223Z,11.30
2023-02-11T19:24:20.164Z,9.63
2023-02-11T19:26:48.558Z,15.35
2023-02-11T19:29:17.024Z,10.88
2023-02-11T19:31:44.832Z,10.18
2023-02-11T19:34:22.461Z,12.80
2023-02-11T19:36:50.324Z,11.00
2023-02-11T19:39:17.257Z,8.45
2023-02-11T19:41:44.627Z,9.43
2023-02-11T19:44:13.989Z,7.85
2023-02-11T19:47:07.217Z,10.93
2023-02-11T19:49:34.296Z,9.35
2023-02-11T19:52:01.141Z,8.93
2023-02-11T19:54:29.460Z,11.18
2023-02-11T19:56:56.534Z,10.55
2023-02-11T19:59:25.207Z,9.50
2023-02-11T20:01:53.202Z,8.85
2023-02-11T20:04:20.075Z,8.63
2023-02-11T20:06:48.740Z,8.20
2023-02-11T20:09:15.801Z,9.38
2023-02-11T20:11:43.695Z,8.60
2023-02-11T20:14:13.476Z,8.50
2023-02-11T20:16:49.982Z,5.35
2023-02-11T20:19:20.043Z,9.23
2023-02-11T20:21:48.723Z,7.85
2023-02-11T20:24:19.618Z,8.20
2023-02-11T20:26:48.575Z,4.93
2023-02-11T20:29:40.607Z,10.32
2023-02-11T20:32:08.351Z,8.05
2023-02-11T20:34:35.441Z,10.68
2023-02-11T20:37:05.541Z,12.40
2023-02-11T20:39:32.958Z,8.40
2023-02-11T20:42:01.196Z,4.45
2023-02-11T20:44:28.129Z,8.93
2023-02-11T20:46:55.001Z,8.82
2023-02-11T20:49:24.325Z,11.35
2023-02-11T20:51:55.853Z,11.30
2023-02-11T20:54:24.307Z,10.05
2023-02-11T20:56:52.297Z,12.75
2023-02-11T20:59:21.333Z,13.98
2023-02-11T21:01:50.275Z,18.45
2023-02-11T21:04:20.608Z,15.23
2023-02-11T21:06:50.873Z,13.73
2023-02-11T21:09:20.124Z,16.55
2023-02-11T21:11:47.655Z,17.08
2023-02-11T21:14:15.884Z,22.60
2023-02-11T21:16:42.902Z,29.55
2023-02-11T21:19:11.580Z,32.05
2023-02-11T21:21:39.617Z,20.52
2023-02-11T21:24:19.876Z,27.85
2023-02-11T21:26:47.343Z,17.95
2023-02-11T21:29:19.341Z,17.63
2023-02-11T21:34:16.344Z,17.48
2023-02-11T21:36:43.510Z,26.20
2023-02-11T21:39:10.379Z,27.10
2023-02-11T21:41:39.925Z,23.98
2023-02-11T21:44:06.928Z,18.15
2023-02-11T21:46:33.862Z,15.73
2023-02-11T21:49:11.599Z,21.45
2023-02-11T21:51:39.501Z,20.13
2023-02-11T21:54:06.486Z,19.38
2023-02-11T21:56:35.140Z,15.45
2023-02-11T21:59:03.488Z,21.58
2023-02-11T22:01:33.286Z,19.98
2023-02-11T22:04:05.556Z,14.32
2023-02-11T22:06:34.443Z,11.93
2023-02-11T22:09:09.165Z,14.57
2023-02-11T22:11:36.790Z,12.05
2023-02-11T22:14:04.520Z,15.07
2023-02-11T22:16:36.541Z,12.82
2023-02-11T22:19:03.787Z,13.52
2023-02-11T22:21:30.888Z,13.55
2023-02-11T22:23:57.876Z,11.70
2023-02-11T22:26:26.824Z,16.58
2023-02-11T22:28:55.919Z,15.40
2023-02-11T22:31:29.047Z,11.65
2023-02-11T22:33:56.575Z,14.43
2023-02-11T22:36:27.799Z,13.68
2023-02-11T22:38:55.335Z,17.50
2023-02-11T22:41:24.343Z,15.68
2023-02-11T22:43:51.413Z,17.63
2023-02-11T22:46:19.993Z,12.95
2023-02-11T22:48:47.921Z,13.32
2023-02-11T22:51:33.748Z,14.02
2023-02-11T22:54:03.889Z,15.32
2023-02-11T22:56:34.646Z,15.13
2023-02-11T22:59:04.459Z,16.23
2023-02-11T23:01:42.559Z,14.65
2023-02-11T23:04:13.459Z,15.82
2023-02-11T23:07:05.368Z,18.35
2023-02-11T23:09:32.140Z,17.10
2023-02-11T23:12:00.113Z,18.75
2023-02-11T23:14:27.053Z,15.05
2023-02-11T23:16:54.024Z,16.58
2023-02-11T23:19:21.233Z,15.77
2023-02-11T23:21:51.658Z,18.92
2023-02-11T23:24:20.788Z,15.80
2023-02-11T23:26:47.593Z,16.75
2023-02-11T23:29:24.557Z,17.40
2023-02-11T23:31:51.595Z,16.65
2023-02-11T23:34:20.465Z,17.35
2023-02-11T23:36:47.322Z,14.85
2023-02-11T23:39:18.643Z,16.70
2023-02-11T23:41:46.433Z,19.48
2023-02-11T23:44:28.487Z,15.55
2023-02-11T23:46:55.640Z,18.23
2023-02-11T23:49:22.452Z,17.75
2023-02-11T23:51:49.584Z,14.80
2023-02-11T23:54:17.596Z,20.05
2023-02-11T23:56:44.800Z,16.42
2023-02-11T23:59:13.323Z,17.67
